Globe Explorer — 3EIQ7 — position and weather

sailwx.info

Track history (hours):
 
Tides and Currents Weather Stations Pressure Air Temp Water Temp Dewpoint Dewpoint Depression Visibility Wind Speed Wind Dir Waves Ship Positions

Globe Explorer

Last reported at 2018-Feb-05 21:34 UTC. Time now 2018-Feb-18 05:33 UTC.
Position N 01°17' E 103°22'.
Warning: this ship's position is 12 days out of date.

Length 169 m; draft 9.4 m.

Type: Cargo ship. MMSI: 357400000.

Date/timePositionNaut miles runAvg speedWind from/ knotsBaromVisibWave heightAir tempDewpointWater temp
2018-Feb-05 21:34N 01°17' E 103°22'112.3
2018-Feb-05 21:27N 01°16' E 103°23'811.8
2018-Feb-05 20:45N 01°13' E 103°31'311.5
2018-Feb-05 20:29N 01°12' E 103°34'611.6
2018-Feb-05 20:00N 01°11' E 103°39'3 6.2
2018-Feb-05 19:29N 01°09' E 103°42'3 7.2
2018-Feb-05 19:00N 01°09' E 103°46'5 9.2
2018-Feb-05 18:29N 01°11' E 103°50'511.1
2018-Feb-05 18:00N 01°14' E 103°55'713.0
2018-Feb-05 17:30N 01°16' E 104°01'  
Track history (hours):
 
Tides and Currents Weather Stations Pressure Air Temp Water Temp Dewpoint Dewpoint Depression Visibility Wind Speed Wind Dir Waves Ship Positions

Globe Explorer

Last reported at 2018-Feb-05 21:34 UTC. Time now 2018-Feb-18 05:33 UTC.
Position N 01°17' E 103°22'.
Warning: this ship's position is 12 days out of date.

Length 169 m; draft 9.4 m.

Type: Cargo ship. MMSI: 357400000.

Date/timePositionNaut miles runAvg speedWind from/ knotsBaromVisibWave heightAir tempDewpointWater temp
2018-Feb-05 21:34N 01°17' E 103°22'112.3
2018-Feb-05 21:27N 01°16' E 103°23'811.8
2018-Feb-05 20:45N 01°13' E 103°31'311.5
2018-Feb-05 20:29N 01°12' E 103°34'611.6
2018-Feb-05 20:00N 01°11' E 103°39'3 6.2
2018-Feb-05 19:29N 01°09' E 103°42'3 7.2
2018-Feb-05 19:00N 01°09' E 103°46'5 9.2
2018-Feb-05 18:29N 01°11' E 103°50'511.1
2018-Feb-05 18:00N 01°14' E 103°55'713.0
2018-Feb-05 17:30N 01°16' E 104°01'  

Dump ship's entire track history